Time;durP1;ratioP1;P1;durP2;ratioP2;P2;SDS_P1;SDS_P2;PMS_P1;PMS_P2;Temp;Humidity;BMP_temperature;BMP_pressure;BME280_temperature;BME280_humidity;BME280_pressure;Samples;Min_cycle;Max_cycle;Signal;HPM_P1;HPM_P2
2021/01/07 00:00:58;;;;;;;44.63;26.73;;;5.60;99.90;;;;;;5062325;28;20171;-89
2021/01/07 00:03:23;;;;;;;46.80;27.33;;;5.60;99.90;;;;;;5043985;28;20207;-89
2021/01/07 00:05:49;;;;;;;44.23;25.73;;;5.60;99.90;;;;;;5045528;28;20193;-90
2021/01/07 00:08:15;;;;;;;49.30;26.53;;;5.60;99.90;;;;;;5044704;28;20251;-91
2021/01/07 00:10:43;;;;;;;50.10;28.07;;;5.60;99.90;;;;;;5042752;28;20523;-90
2021/01/07 00:13:09;;;;;;;47.93;27.63;;;5.60;99.90;;;;;;5046666;28;20208;-90
2021/01/07 00:15:34;;;;;;;55.77;29.63;;;5.60;99.90;;;;;;5045802;28;20246;-90
2021/01/07 00:18:00;;;;;;;50.70;28.73;;;5.50;99.90;;;;;;5060240;28;20801;-89
2021/01/07 00:20:26;;;;;;;50.70;30.00;;;5.60;99.90;;;;;;5061098;28;20178;-90
2021/01/07 00:22:51;;;;;;;47.53;28.67;;;5.60;99.90;;;;;;5061860;28;20631;-90
2021/01/07 00:25:17;;;;;;;56.93;31.00;;;5.60;99.90;;;;;;5051038;28;20171;-90
2021/01/07 00:27:43;;;;;;;53.70;29.47;;;5.70;99.90;;;;;;5050995;28;20636;-91
2021/01/07 00:30:09;;;;;;;52.73;30.27;;;5.80;99.90;;;;;;5038330;28;20168;-91
2021/01/07 00:32:34;;;;;;;56.07;29.70;;;5.70;99.90;;;;;;5004891;28;20215;-91
2021/01/07 00:35:00;;;;;;;50.57;29.83;;;5.80;99.90;;;;;;5019546;28;20172;-92
2021/01/07 00:37:26;;;;;;;53.07;29.00;;;5.80;99.90;;;;;;5036217;28;20250;-91
2021/01/07 00:39:52;;;;;;;56.83;30.87;;;5.80;99.90;;;;;;5040480;28;20569;-91
2021/01/07 00:42:17;;;;;;;52.00;29.97;;;5.70;99.90;;;;;;5039790;28;20182;-91
2021/01/07 00:44:45;;;;;;;51.37;29.67;;;5.60;99.90;;;;;;5023320;28;20175;-91
2021/01/07 00:47:10;;;;;;;55.10;28.67;;;5.60;99.90;;;;;;5039173;28;20269;-91
2021/01/07 00:49:36;;;;;;;54.67;29.33;;;5.60;99.90;;;;;;5042644;28;20171;-92
2021/01/07 00:52:02;;;;;;;50.03;28.60;;;5.60;99.90;;;;;;5060103;28;20247;-89
2021/01/07 00:54:29;;;;;;;49.87;28.77;;;5.60;99.90;;;;;;5041407;28;20580;-89
2021/01/07 00:56:55;;;;;;;53.63;30.53;;;5.60;99.90;;;;;;5049330;28;20202;-88
2021/01/07 00:59:20;;;;;;;50.73;29.57;;;5.60;99.90;;;;;;5058838;28;20193;-89
2021/01/07 01:01:47;;;;;;;59.53;31.10;;;5.50;99.90;;;;;;5041626;28;20172;-91
2021/01/07 01:04:16;;;;;;;60.47;30.77;;;5.50;99.90;;;;;;5047087;28;20159;-91
2021/01/07 01:06:43;;;;;;;53.97;29.37;;;5.50;99.90;;;;;;5058527;28;20221;-92
2021/01/07 01:09:12;;;;;;;53.23;30.60;;;5.40;99.90;;;;;;5058411;28;20171;-91
2021/01/07 01:11:46;;;;;;;55.00;29.73;;;5.30;99.90;;;;;;5058586;28;20266;-91
2021/01/07 01:14:16;;;;;;;49.93;28.87;;;5.30;99.90;;;;;;5075833;28;20200;-91
2021/01/07 01:16:42;;;;;;;55.57;29.70;;;5.30;99.90;;;;;;5058527;28;20283;-91
2021/01/07 01:19:07;;;;;;;51.10;29.13;;;5.20;99.90;;;;;;5042249;28;20206;-91
2021/01/07 01:21:33;;;;;;;53.90;30.10;;;5.00;99.90;;;;;;5058314;28;20167;-91
2021/01/07 01:23:59;;;;;;;53.00;29.30;;;5.00;99.90;;;;;;5047284;28;20175;-92
2021/01/07 01:26:25;;;;;;;54.10;31.03;;;4.90;99.90;;;;;;5040859;28;20207;-91
2021/01/07 01:28:54;;;;;;;57.00;31.17;;;4.80;99.90;;;;;;5073446;28;20167;-91
2021/01/07 01:31:19;;;;;;;53.73;30.43;;;4.80;99.90;;;;;;5081246;28;20176;-91
2021/01/07 01:33:45;;;;;;;58.30;30.23;;;4.90;99.90;;;;;;5076572;28;20174;-91
2021/01/07 01:36:11;;;;;;;51.20;30.33;;;4.90;99.90;;;;;;5041604;28;20179;-91
2021/01/07 01:38:37;;;;;;;52.77;31.40;;;5.00;99.90;;;;;;5057494;28;20202;-92
2021/01/07 01:41:04;;;;;;;55.53;29.90;;;5.00;99.90;;;;;;5057598;28;20258;-92
2021/01/07 01:43:30;;;;;;;49.93;28.97;;;5.10;99.90;;;;;;5041083;28;20175;-91
2021/01/07 01:45:56;;;;;;;60.47;32.37;;;5.20;99.90;;;;;;5077458;28;20185;-92
2021/01/07 01:48:25;;;;;;;62.97;31.33;;;5.30;99.90;;;;;;5080799;28;20155;-92
2021/01/07 01:50:51;;;;;;;56.90;31.10;;;5.40;99.90;;;;;;5069084;28;20175;-91
2021/01/07 01:53:20;;;;;;;59.47;32.53;;;5.50;99.90;;;;;;5041464;28;20289;-91
2021/01/07 01:55:49;;;;;;;58.80;31.07;;;5.40;99.90;;;;;;5055815;28;20261;-91
2021/01/07 01:58:15;;;;;;;57.40;30.90;;;5.30;99.90;;;;;;5037454;28;20561;-91
2021/01/07 02:00:41;;;;;;;53.60;29.53;;;5.30;99.90;;;;;;5037553;28;20176;-91
2021/01/07 02:03:10;;;;;;;52.93;30.50;;;5.30;99.90;;;;;;5037441;28;20262;-91
2021/01/07 02:05:37;;;;;;;53.10;30.93;;;5.20;99.90;;;;;;5055808;28;20183;-91
2021/01/07 02:08:03;;;;;;;55.37;29.77;;;5.20;99.90;;;;;;5040603;28;20197;-91
2021/01/07 02:10:33;;;;;;;53.87;30.50;;;5.20;99.90;;;;;;5056002;28;20278;-92
2021/01/07 02:13:01;;;;;;;54.37;30.77;;;5.20;99.90;;;;;;5034797;28;20168;-92
2021/01/07 02:15:27;;;;;;;59.73;31.67;;;5.20;99.90;;;;;;5033216;28;20167;-92
2021/01/07 02:17:55;;;;;;;54.50;31.30;;;5.20;99.90;;;;;;5050761;28;20245;-91
2021/01/07 02:20:26;;;;;;;58.80;31.07;;;5.30;99.90;;;;;;5036971;28;20195;-91
2021/01/07 02:22:56;;;;;;;58.23;31.57;;;5.20;99.90;;;;;;5036911;28;20174;-91
2021/01/07 02:25:22;;;;;;;54.00;29.17;;;5.20;99.90;;;;;;5041488;28;20182;-91
2021/01/07 02:27:49;;;;;;;53.40;30.30;;;5.10;99.90;;;;;;5055925;28;20175;-91
2021/01/07 02:30:16;;;;;;;52.47;28.97;;;5.00;99.90;;;;;;5056760;28;20261;-91
2021/01/07 02:32:42;;;;;;;53.23;28.80;;;5.10;99.90;;;;;;5056996;28;20603;-92
2021/01/07 02:35:09;;;;;;;51.70;28.77;;;5.20;99.90;;;;;;5053555;28;20263;-91
2021/01/07 02:37:38;;;;;;;50.97;28.30;;;5.10;99.90;;;;;;5048716;28;20237;-91
2021/01/07 02:40:07;;;;;;;53.17;28.77;;;5.00;99.90;;;;;;5041053;28;20529;-92
2021/01/07 02:42:35;;;;;;;55.17;29.47;;;5.00;99.90;;;;;;5057106;28;20171;-91
2021/01/07 02:45:04;;;;;;;50.30;28.77;;;4.90;99.90;;;;;;5056570;28;20179;-91
2021/01/07 02:47:31;;;;;;;51.47;29.40;;;4.90;99.90;;;;;;5056497;28;20174;-91
2021/01/07 02:49:57;;;;;;;51.93;28.83;;;4.80;99.90;;;;;;5047481;28;20210;-91
2021/01/07 02:52:23;;;;;;;52.10;29.83;;;4.90;99.90;;;;;;5046441;28;20183;-91
2021/01/07 02:54:48;;;;;;;50.77;27.80;;;5.00;99.90;;;;;;5056575;28;20201;-91
2021/01/07 02:57:14;;;;;;;51.17;28.73;;;5.10;99.90;;;;;;5040381;28;20323;-91
2021/01/07 02:59:40;;;;;;;55.93;27.97;;;5.20;99.90;;;;;;5056897;28;20167;-91
2021/01/07 03:02:11;;;;;;;48.20;27.50;;;5.30;99.90;;;;;;5056464;28;20328;-91
2021/01/07 03:04:37;;;;;;;47.00;27.27;;;5.40;99.90;;;;;;5040875;28;20175;-89
2021/01/07 03:07:03;;;;;;;53.10;27.10;;;5.40;99.90;;;;;;5037477;28;20200;-89
2021/01/07 03:09:29;;;;;;;51.40;26.93;;;5.40;99.90;;;;;;5036422;28;20505;-89
2021/01/07 03:11:54;;;;;;;44.77;25.57;;;5.40;99.90;;;;;;5036752;28;20167;-89
2021/01/07 03:14:20;;;;;;;47.80;27.40;;;5.50;99.90;;;;;;5020315;28;20529;-89
2021/01/07 03:16:46;;;;;;;54.03;26.77;;;5.50;99.90;;;;;;5036772;28;20183;-89
2021/01/07 03:19:11;;;;;;;40.80;25.47;;;5.50;99.90;;;;;;5036285;28;20206;-88
2021/01/07 03:21:41;;;;;;;41.40;24.07;;;5.50;99.90;;;;;;5020235;28;20270;-89
2021/01/07 03:24:09;;;;;;;41.37;24.80;;;5.50;99.90;;;;;;5054668;28;20555;-91
2021/01/07 03:26:35;;;;;;;39.90;24.40;;;5.50;99.90;;;;;;5036441;28;20172;-91
2021/01/07 03:29:04;;;;;;;37.57;23.80;;;5.40;99.90;;;;;;5043701;28;20211;-89
2021/01/07 03:31:30;;;;;;;52.30;27.23;;;5.40;99.90;;;;;;5056194;28;20170;-89
2021/01/07 03:33:56;;;;;;;43.40;24.87;;;5.40;99.90;;;;;;5055888;28;20167;-89
2021/01/07 03:36:22;;;;;;;45.20;24.50;;;5.40;99.90;;;;;;5039839;28;20236;-89
2021/01/07 03:38:47;;;;;;;48.77;26.63;;;5.50;99.90;;;;;;5045194;28;20225;-89
2021/01/07 03:41:13;;;;;;;42.27;25.37;;;5.60;99.90;;;;;;5040170;28;20267;-88
2021/01/07 03:43:39;;;;;;;43.00;25.97;;;5.50;99.90;;;;;;5023402;28;20209;-89
2021/01/07 03:46:05;;;;;;;47.80;26.17;;;5.50;99.90;;;;;;5040207;28;20194;-89
2021/01/07 03:48:30;;;;;;;45.97;26.27;;;5.50;99.90;;;;;;5039686;28;20175;-91
2021/01/07 03:50:56;;;;;;;44.97;25.90;;;5.50;99.90;;;;;;5039853;28;20229;-89
2021/01/07 03:53:22;;;;;;;43.30;24.93;;;5.60;99.90;;;;;;5073183;28;20214;-90
2021/01/07 03:55:47;;;;;;;45.77;24.97;;;5.60;99.90;;;;;;5063212;28;20151;-90
2021/01/07 03:58:13;;;;;;;44.03;25.50;;;5.60;99.90;;;;;;5063456;28;20205;-90
2021/01/07 04:00:39;;;;;;;43.50;24.70;;;5.50;99.90;;;;;;5029572;28;20167;-90
2021/01/07 04:03:04;;;;;;;42.63;25.53;;;5.40;99.90;;;;;;5039969;28;20167;-90
2021/01/07 04:05:32;;;;;;;43.93;25.20;;;5.40;99.90;;;;;;5039740;28;20183;-89
2021/01/07 04:07:58;;;;;;;47.70;25.67;;;5.40;99.90;;;;;;5040005;28;20178;-89
2021/01/07 04:10:24;;;;;;;46.53;25.43;;;5.40;99.90;;;;;;5044608;28;20183;-90
2021/01/07 04:12:49;;;;;;;45.10;23.73;;;5.40;99.90;;;;;;5061112;28;20178;-89
2021/01/07 04:15:15;;;;;;;40.23;22.40;;;5.30;99.90;;;;;;5046271;28;20167;-91
2021/01/07 04:17:41;;;;;;;40.30;22.10;;;5.30;99.90;;;;;;5041707;28;20614;-90
2021/01/07 04:20:07;;;;;;;35.07;21.23;;;5.40;99.90;;;;;;5051178;28;20178;-90
2021/01/07 04:22:38;;;;;;;32.10;20.57;;;5.30;99.90;;;;;;5071333;28;20154;-91
2021/01/07 04:25:28;;;;;;;32.03;20.13;;;5.30;99.90;;;;;;5100589;28;20155;-89
2021/01/07 04:27:56;;;;;;;30.43;19.27;;;5.20;99.90;;;;;;5073792;28;20171;-90
2021/01/07 04:30:22;;;;;;;31.47;20.47;;;5.20;99.90;;;;;;5082954;28;20179;-91
2021/01/07 04:32:48;;;;;;;25.33;17.00;;;5.30;99.90;;;;;;5058767;28;20198;-90
2021/01/07 04:35:14;;;;;;;33.67;18.40;;;5.20;99.90;;;;;;5041785;28;20182;-90
2021/01/07 04:37:39;;;;;;;33.03;18.60;;;5.10;99.90;;;;;;5054452;28;20266;-90
2021/01/07 04:40:06;;;;;;;32.20;17.73;;;5.10;99.90;;;;;;5043601;28;20175;-90
2021/01/07 04:42:31;;;;;;;28.03;17.13;;;5.20;99.90;;;;;;5059259;28;20174;-90
2021/01/07 04:44:59;;;;;;;27.90;17.37;;;5.00;99.90;;;;;;5026419;28;20193;-90
2021/01/07 04:47:25;;;;;;;27.30;16.27;;;5.10;99.90;;;;;;5059367;28;20209;-90
2021/01/07 04:49:52;;;;;;;23.23;16.17;;;5.10;99.90;;;;;;5058437;28;20183;-90
2021/01/07 04:52:17;;;;;;;31.87;16.40;;;5.10;99.90;;;;;;5048036;28;20167;-90
2021/01/07 04:54:44;;;;;;;23.67;15.17;;;5.20;99.90;;;;;;5002475;28;20259;-90
2021/01/07 04:57:10;;;;;;;22.47;15.17;;;5.10;99.90;;;;;;5035897;28;20180;-90
2021/01/07 04:59:35;;;;;;;26.00;15.90;;;5.10;99.90;;;;;;5036342;28;20543;-90
2021/01/07 05:02:05;;;;;;;23.27;15.03;;;5.20;99.90;;;;;;5018949;28;20230;-90
2021/01/07 05:04:31;;;;;;;26.37;15.80;;;5.00;99.90;;;;;;5021485;28;20180;-90
2021/01/07 05:06:59;;;;;;;23.13;15.23;;;5.00;99.90;;;;;;5058617;28;20629;-91
2021/01/07 05:09:26;;;;;;;24.93;15.80;;;5.10;99.90;;;;;;5058647;28;20174;-91
2021/01/07 05:11:51;;;;;;;25.90;15.73;;;5.10;99.90;;;;;;5058510;28;20256;-90
2021/01/07 05:14:17;;;;;;;23.17;15.83;;;5.00;99.90;;;;;;5057934;28;20170;-91
2021/01/07 05:16:43;;;;;;;22.90;14.97;;;4.90;99.90;;;;;;5043689;28;20170;-90
2021/01/07 05:19:09;;;;;;;22.33;15.33;;;4.90;99.90;;;;;;5037809;28;20260;-90
2021/01/07 05:21:35;;;;;;;19.90;14.53;;;4.90;99.90;;;;;;5045072;28;20175;-91
2021/01/07 05:24:02;;;;;;;22.70;13.67;;;4.70;99.90;;;;;;5057712;28;20175;-90
2021/01/07 05:26:28;;;;;;;20.43;14.47;;;4.70;99.90;;;;;;5052266;28;20262;-90
2021/01/07 05:28:55;;;;;;;19.40;14.53;;;4.70;99.90;;;;;;5037814;28;20175;-90
2021/01/07 05:31:23;;;;;;;20.07;14.53;;;4.70;99.90;;;;;;5038484;28;20174;-90
2021/01/07 05:33:49;;;;;;;26.43;14.93;;;4.60;99.90;;;;;;5038113;28;20167;-90
2021/01/07 05:36:26;;;;;;;25.30;15.67;;;4.60;99.90;;;;;;5037536;28;20625;-90
2021/01/07 05:39:05;;;;;;;20.17;15.03;;;4.50;99.90;;;;;;5018316;28;20211;-90
2021/01/07 05:41:31;;;;;;;24.10;15.87;;;4.50;99.90;;;;;;5022734;28;20160;-90
2021/01/07 05:44:02;;;;;;;22.27;15.50;;;4.60;99.90;;;;;;5057887;28;20621;-90
2021/01/07 05:46:32;;;;;;;22.50;14.93;;;4.60;99.90;;;;;;5057642;28;20190;-90
2021/01/07 05:48:59;;;;;;;29.33;16.40;;;4.70;99.90;;;;;;5041268;28;20167;-90
2021/01/07 05:51:27;;;;;;;26.30;16.63;;;4.80;99.90;;;;;;5051318;28;20167;-89
2021/01/07 05:53:54;;;;;;;28.40;16.50;;;4.90;99.90;;;;;;5057515;28;20261;-90
2021/01/07 05:56:21;;;;;;;24.20;16.60;;;4.90;99.90;;;;;;5050964;28;20178;-90
2021/01/07 05:58:49;;;;;;;24.80;17.10;;;5.00;99.90;;;;;;5037485;28;20286;-90
2021/01/07 06:01:16;;;;;;;24.03;16.73;;;5.20;99.90;;;;;;5053793;28;20214;-90
2021/01/07 06:03:50;;;;;;;23.63;16.80;;;5.30;99.90;;;;;;5037138;28;20172;-90
2021/01/07 06:06:18;;;;;;;27.43;17.47;;;5.40;99.90;;;;;;5037083;28;20183;-90
2021/01/07 06:08:48;;;;;;;30.77;18.03;;;5.30;99.90;;;;;;5036966;28;20632;-90
2021/01/07 06:11:16;;;;;;;29.67;18.03;;;5.40;99.90;;;;;;5046330;28;20181;-89
2021/01/07 06:13:43;;;;;;;30.70;17.93;;;5.40;99.90;;;;;;5057152;28;20182;-90
2021/01/07 06:16:20;;;;;;;27.70;17.87;;;5.40;99.90;;;;;;5056974;28;20174;-90
2021/01/07 06:18:47;;;;;;;27.77;17.23;;;5.40;99.90;;;;;;5057615;28;20186;-89
2021/01/07 06:21:14;;;;;;;29.77;18.17;;;5.50;99.90;;;;;;5072171;28;20167;-90
2021/01/07 06:23:47;;;;;;;30.90;18.87;;;5.60;99.90;;;;;;5079569;28;20170;-90
2021/01/07 06:26:19;;;;;;;22.83;17.20;;;5.60;99.90;;;;;;5040132;28;20174;-90
2021/01/07 06:28:48;;;;;;;25.67;17.50;;;5.60;99.90;;;;;;5048020;28;20187;-90
2021/01/07 06:31:15;;;;;;;27.57;18.43;;;5.60;99.90;;;;;;5049777;28;20179;-89
2021/01/07 06:33:42;;;;;;;22.43;17.37;;;5.50;99.90;;;;;;5037295;28;20230;-89
2021/01/07 06:36:08;;;;;;;28.30;17.67;;;5.40;99.90;;;;;;5051872;28;20177;-89
2021/01/07 06:38:34;;;;;;;27.37;18.13;;;5.50;99.90;;;;;;5045128;28;20203;-90
2021/01/07 06:41:03;;;;;;;27.17;18.97;;;5.50;99.90;;;;;;5053835;28;20270;-90
2021/01/07 06:43:30;;;;;;;28.33;17.80;;;5.50;99.90;;;;;;5036858;28;20171;-89
2021/01/07 06:45:57;;;;;;;25.90;17.43;;;5.60;99.90;;;;;;5036805;28;20338;-90
2021/01/07 06:48:31;;;;;;;25.27;18.03;;;5.60;99.90;;;;;;5037065;28;20186;-89
2021/01/07 06:50:58;;;;;;;27.13;17.17;;;5.60;99.90;;;;;;5043667;28;20174;-89
2021/01/07 06:53:25;;;;;;;22.40;16.73;;;5.70;99.90;;;;;;5056822;28;20503;-90
2021/01/07 06:56:14;;;;;;;23.17;16.50;;;5.60;99.90;;;;;;5056841;28;20205;-89
2021/01/07 06:58:41;;;;;;;21.60;15.87;;;5.60;99.90;;;;;;5056790;28;20232;-90
2021/01/07 07:01:10;;;;;;;21.47;15.73;;;5.40;99.90;;;;;;5042464;28;20239;-89
2021/01/07 07:03:46;;;;;;;21.10;16.17;;;5.20;99.90;;;;;;5036877;28;20181;-90
2021/01/07 07:06:16;;;;;;;20.93;15.53;;;5.30;99.90;;;;;;5036681;28;20599;-90
2021/01/07 07:08:45;;;;;;;22.07;16.63;;;5.30;99.90;;;;;;5036188;28;20222;-90
2021/01/07 07:11:12;;;;;;;19.83;15.60;;;5.30;99.90;;;;;;5036941;28;20538;-90
2021/01/07 07:13:43;;;;;;;25.10;16.57;;;5.20;99.90;;;;;;5040218;28;20206;-90
2021/01/07 07:16:14;;;;;;;18.73;15.13;;;5.20;99.90;;;;;;5058211;28;20171;-90
2021/01/07 07:18:39;;;;;;;20.43;15.40;;;5.30;99.90;;;;;;5040550;28;20324;-90
2021/01/07 07:21:21;;;;;;;24.63;15.40;;;5.30;99.90;;;;;;5043844;28;20172;-90
2021/01/07 07:23:47;;;;;;;22.37;16.07;;;5.20;99.90;;;;;;5059831;28;20163;-89
2021/01/07 07:26:28;;;;;;;21.43;15.50;;;4.90;99.90;;;;;;5041834;28;20635;-89
2021/01/07 07:28:55;;;;;;;21.63;15.07;;;4.90;99.90;;;;;;5041218;28;20198;-90
2021/01/07 07:31:36;;;;;;;25.73;15.93;;;5.00;99.90;;;;;;5040450;28;20176;-90
2021/01/07 07:34:01;;;;;;;16.73;14.40;;;5.10;99.90;;;;;;5020315;28;20266;-90
2021/01/07 07:36:32;;;;;;;19.83;14.13;;;5.10;99.90;;;;;;5020583;28;20196;-89
2021/01/07 07:38:58;;;;;;;22.83;14.40;;;5.10;99.90;;;;;;5019717;28;20196;-90
2021/01/07 07:41:27;;;;;;;21.07;14.83;;;5.20;99.90;;;;;;5003830;28;20173;-90
2021/01/07 07:43:54;;;;;;;21.10;14.67;;;5.10;99.90;;;;;;5052308;28;20167;-89
2021/01/07 07:46:25;;;;;;;24.63;15.13;;;5.20;99.90;;;;;;5059634;28;20170;-90
2021/01/07 07:49:03;;;;;;;21.40;14.90;;;5.20;99.90;;;;;;5077485;28;20163;-89
2021/01/07 07:51:29;;;;;;;20.13;15.10;;;5.30;99.90;;;;;;5059592;28;20167;-89
2021/01/07 07:54:02;;;;;;;17.30;14.10;;;5.40;99.90;;;;;;5059546;28;20261;-89
2021/01/07 07:56:28;;;;;;;15.90;12.83;;;5.30;99.90;;;;;;5059591;28;20171;-89
2021/01/07 07:59:02;;;;;;;14.83;13.10;;;5.30;99.90;;;;;;5039284;28;20560;-89
2021/01/07 08:01:42;;;;;;;16.83;12.87;;;5.00;99.90;;;;;;5039417;28;20201;-89
2021/01/07 08:04:18;;;;;;;18.30;12.30;;;4.90;99.90;;;;;;5040479;28;20167;-89
2021/01/07 08:06:48;;;;;;;14.70;12.47;;;5.00;99.90;;;;;;5024723;28;20191;-89
2021/01/07 08:09:15;;;;;;;15.03;12.40;;;5.00;99.90;;;;;;5040349;28;20181;-90
2021/01/07 08:11:42;;;;;;;14.80;12.07;;;5.00;99.90;;;;;;5039767;28;20651;-88
2021/01/07 08:14:14;;;;;;;14.77;10.87;;;5.20;99.90;;;;;;5027686;28;20540;-87
2021/01/07 08:16:40;;;;;;;12.07;10.13;;;5.00;99.90;;;;;;5059877;28;20171;-89
2021/01/07 08:19:20;;;;;;;11.67;10.53;;;5.00;99.90;;;;;;5059781;28;20206;-89
2021/01/07 08:21:48;;;;;;;13.67;9.90;;;5.00;99.90;;;;;;5060741;28;20220;-88
2021/01/07 08:24:16;;;;;;;17.50;11.00;;;5.30;99.90;;;;;;5025610;28;20188;-89
2021/01/07 08:26:45;;;;;;;10.80;9.80;;;5.30;99.90;;;;;;5020109;28;20180;-88
2021/01/07 08:29:11;;;;;;;10.87;9.47;;;5.40;99.90;;;;;;5019755;28;20172;-89
2021/01/07 08:31:47;;;;;;;11.97;9.80;;;5.60;99.90;;;;;;5018835;28;20172;-87
2021/01/07 08:34:17;;;;;;;10.63;9.33;;;5.60;99.90;;;;;;5036738;28;20240;-88
2021/01/07 08:36:43;;;;;;;10.73;8.23;;;5.30;99.90;;;;;;5039328;28;20167;-88
2021/01/07 08:39:13;;;;;;;9.13;8.23;;;5.20;99.90;;;;;;5026405;28;20202;-88
2021/01/07 08:41:44;;;;;;;9.00;8.10;;;5.10;99.90;;;;;;5066087;28;20627;-88
2021/01/07 08:44:10;;;;;;;7.40;6.70;;;4.90;99.90;;;;;;5077289;28;20218;-87
2021/01/07 08:46:42;;;;;;;8.13;7.10;;;4.80;99.90;;;;;;5051668;28;20173;-88
2021/01/07 08:49:10;;;;;;;8.50;7.37;;;4.90;99.90;;;;;;5051933;28;20175;-89
2021/01/07 08:51:40;;;;;;;8.83;7.50;;;5.10;99.90;;;;;;5059510;28;20174;-88
2021/01/07 08:54:15;;;;;;;9.00;7.20;;;5.20;99.90;;;;;;5058483;28;20170;-89
2021/01/07 08:56:47;;;;;;;8.37;7.57;;;5.30;99.90;;;;;;5043295;28;20595;-89
2021/01/07 08:59:27;;;;;;;10.33;6.87;;;5.60;99.90;;;;;;5061753;28;20198;-88
2021/01/07 09:02:07;;;;;;;11.33;7.20;;;5.70;99.90;;;;;;5079045;28;20187;-89
2021/01/07 09:04:40;;;;;;;11.93;7.53;;;5.90;99.90;;;;;;5081963;28;20178;-90
2021/01/07 09:07:06;;;;;;;7.50;6.90;;;6.10;99.90;;;;;;5028036;28;20523;-88
2021/01/07 09:09:42;;;;;;;9.97;7.07;;;6.30;99.90;;;;;;5018281;28;20222;-88
2021/01/07 09:12:09;;;;;;;7.73;6.53;;;6.20;99.90;;;;;;5018242;28;20197;-89
2021/01/07 09:14:57;;;;;;;9.03;6.87;;;6.20;99.90;;;;;;5035864;28;20172;-89
2021/01/07 09:17:26;;;;;;;8.03;7.37;;;6.20;99.90;;;;;;5042219;28;20199;-89
2021/01/07 09:19:52;;;;;;;10.30;7.10;;;5.80;99.90;;;;;;5060588;28;20538;-89
2021/01/07 09:22:21;;;;;;;10.50;8.10;;;6.10;99.90;;;;;;5037868;28;20573;-89
2021/01/07 09:24:48;;;;;;;11.07;7.53;;;6.60;99.90;;;;;;5038056;28;20262;-89
2021/01/07 09:27:19;;;;;;;7.57;6.87;;;7.60;99.90;;;;;;5005447;28;20210;-89
2021/01/07 09:29:45;;;;;;;7.17;5.77;;;9.10;99.90;;;;;;5037789;28;20221;-89
2021/01/07 09:32:12;;;;;;;6.70;5.87;;;9.70;99.90;;;;;;5021544;28;20183;-89
2021/01/07 09:34:39;;;;;;;9.50;5.63;;;9.60;99.90;;;;;;5037556;28;20167;-89
2021/01/07 09:37:17;;;;;;;5.60;5.20;;;9.30;99.90;;;;;;5020973;28;20182;-89
2021/01/07 09:39:45;;;;;;;6.40;5.47;;;9.40;99.90;;;;;;5040356;28;20655;-89
2021/01/07 09:42:11;;;;;;;6.00;5.20;;;9.10;99.90;;;;;;5057302;28;20528;-88
2021/01/07 09:44:38;;;;;;;9.47;4.97;;;8.90;99.90;;;;;;5058761;28;20262;-88
2021/01/07 09:47:04;;;;;;;4.93;4.63;;;8.70;99.90;;;;;;5056183;28;20257;-89
2021/01/07 09:49:32;;;;;;;5.23;4.73;;;8.90;99.90;;;;;;5038057;28;20210;-89
2021/01/07 09:51:58;;;;;;;5.53;4.83;;;8.90;99.90;;;;;;5037981;28;20171;-89
2021/01/07 09:54:24;;;;;;;6.60;4.10;;;9.40;99.90;;;;;;5037881;28;20190;-90
2021/01/07 09:56:55;;;;;;;8.03;4.77;;;9.80;99.90;;;;;;5038253;28;20172;-87
2021/01/07 09:59:21;;;;;;;4.97;4.50;;;10.70;99.90;;;;;;5037501;28;20199;-86
2021/01/07 10:01:51;;;;;;;3.83;3.50;;;11.40;99.90;;;;;;5037463;28;20182;-87
2021/01/07 10:04:18;;;;;;;4.90;3.60;;;11.40;99.90;;;;;;5036425;28;20229;-88
2021/01/07 10:06:43;;;;;;;7.35;3.75;;;10.80;99.90;;;;;;5038499;28;20183;-89
2021/01/07 10:09:09;;;;;;;8.30;3.80;;;11.10;99.90;;;;;;5021436;28;20214;-90
2021/01/07 10:11:35;;;;;;;5.70;3.40;;;11.20;99.90;;;;;;5037414;28;20175;-89
2021/01/07 10:14:01;;;;;;;4.93;3.63;;;11.40;99.90;;;;;;5037561;28;20580;-89
2021/01/07 10:16:26;;;;;;;3.92;2.67;;;12.00;99.90;;;;;;5037420;28;20180;-88
2021/01/07 10:18:53;;;;;;;7.15;2.95;;;11.50;99.90;;;;;;5020777;28;20253;-86
2021/01/07 10:21:22;;;;;;;4.78;3.10;;;11.30;99.90;;;;;;5037168;28;20624;-89
2021/01/07 10:23:48;;;;;;;2.70;2.45;;;11.60;99.90;;;;;;5036812;28;20631;-86
2021/01/07 10:26:17;;;;;;;4.50;2.85;;;12.00;99.90;;;;;;5031722;28;20187;-86
2021/01/07 10:28:44;;;;;;;3.50;2.70;;;12.90;99.90;;;;;;5017431;28;20187;-86
2021/01/07 10:31:10;;;;;;;3.90;2.55;;;12.70;99.90;;;;;;5036951;28;20168;-88
2021/01/07 10:33:38;;;;;;;4.70;2.67;;;12.10;99.90;;;;;;5037033;28;20163;-89
2021/01/07 10:36:04;;;;;;;6.25;2.80;;;11.50;99.90;;;;;;5020895;28;20179;-88
2021/01/07 10:38:32;;;;;;;6.63;3.10;;;11.00;99.90;;;;;;5020556;28;20203;-87
2021/01/07 10:41:00;;;;;;;5.53;3.07;;;10.20;99.90;;;;;;5037115;28;20294;-86
2021/01/07 10:43:28;;;;;;;4.25;2.95;;;9.60;99.90;;;;;;5036834;28;20620;-89
2021/01/07 10:45:55;;;;;;;5.07;2.97;;;9.30;99.90;;;;;;5028005;28;20179;-89
2021/01/07 10:48:23;;;;;;;5.43;3.10;;;8.80;99.90;;;;;;5019714;28;20176;-88
2021/01/07 10:50:50;;;;;;;7.23;3.17;;;8.60;99.90;;;;;;5021212;28;20174;-89
2021/01/07 10:53:44;;;;;;;12.63;3.30;;;9.20;99.90;;;;;;5021436;28;20176;-89
2021/01/07 10:56:35;;;;;;;3.05;2.78;;;10.70;99.90;;;;;;5020762;28;20180;-87
2021/01/07 10:59:35;;;;;;;8.43;2.88;;;13.20;99.90;;;;;;5037598;28;20703;-87
2021/01/07 11:02:07;;;;;;;4.20;2.65;;;16.00;99.90;;;;;;5021346;28;20180;-88
2021/01/07 11:04:40;;;;;;;6.90;2.40;;;17.00;99.90;;;;;;5021411;28;20215;-88
2021/01/07 11:07:16;;;;;;;5.18;2.78;;;18.70;99.90;;;;;;5032629;28;20184;-88
2021/01/07 11:09:51;;;;;;;5.68;2.60;;;17.80;99.90;;;;;;5044290;28;20593;-88
2021/01/07 11:12:27;;;;;;;3.75;2.42;;;17.80;99.90;;;;;;5044749;28;20152;-88
2021/01/07 11:15:04;;;;;;;3.28;2.80;;;16.00;99.90;;;;;;5029927;28;20187;-88
2021/01/07 11:17:32;;;;;;;4.63;2.95;;;14.80;99.90;;;;;;5021373;28;20524;-88
2021/01/07 11:20:03;;;;;;;5.43;2.65;;;13.80;99.90;;;;;;5039034;28;20168;-88
2021/01/07 11:22:33;;;;;;;3.97;2.55;;;12.80;99.90;;;;;;5020922;28;20181;-88
2021/01/07 11:25:00;;;;;;;4.78;2.88;;;12.40;99.90;;;;;;5034661;28;20148;-88
2021/01/07 11:27:26;;;;;;;4.50;3.22;;;12.10;99.90;;;;;;5072696;28;20157;-88
2021/01/07 11:29:53;;;;;;;7.72;3.30;;;11.90;99.90;;;;;;5081256;28;20185;-88
2021/01/07 11:32:19;;;;;;;8.90;3.33;;;11.10;99.90;;;;;;5059842;28;20323;-88
2021/01/07 11:34:48;;;;;;;9.10;3.35;;;10.40;99.90;;;;;;5060679;28;20623;-89
2021/01/07 11:37:38;;;;;;;8.18;3.03;;;10.50;99.90;;;;;;5051367;28;20164;-88
2021/01/07 11:40:12;;;;;;;6.68;2.90;;;10.60;99.90;;;;;;5040632;28;20237;-88
2021/01/07 11:43:04;;;;;;;7.53;3.17;;;10.30;99.90;;;;;;5059822;28;20151;-88
2021/01/07 11:45:37;;;;;;;10.07;4.27;;;9.70;99.90;;;;;;5041752;28;20198;-88
2021/01/07 11:48:05;;;;;;;4.95;3.40;;;9.50;99.90;;;;;;5043300;28;20175;-88
2021/01/07 11:50:40;;;;;;;5.65;3.70;;;9.30;99.90;;;;;;5041762;28;20229;-88
2021/01/07 11:53:06;;;;;;;7.53;3.67;;;9.70;99.90;;;;;;5060838;28;20158;-88
2021/01/07 11:55:33;;;;;;;5.70;3.10;;;10.00;99.90;;;;;;5059758;28;20604;-89
2021/01/07 11:57:59;;;;;;;7.90;2.75;;;10.10;99.90;;;;;;5053958;28;20216;-90
2021/01/07 12:00:25;;;;;;;7.50;2.80;;;9.90;99.90;;;;;;5063587;28;20188;-88
2021/01/07 12:02:51;;;;;;;6.97;3.40;;;9.80;99.90;;;;;;5063786;28;20177;-89
2021/01/07 12:05:20;;;;;;;6.55;2.60;;;10.10;99.90;;;;;;5063533;28;20240;-88
2021/01/07 12:08:18;;;;;;;7.07;2.65;;;10.60;99.90;;;;;;5078086;28;20205;-88
2021/01/07 12:10:46;;;;;;;8.07;3.45;;;10.30;99.90;;;;;;5065905;28;20185;-89
2021/01/07 12:13:28;;;;;;;8.55;3.08;;;9.50;99.90;;;;;;5073779;28;20167;-90
2021/01/07 12:15:54;;;;;;;10.10;3.58;;;10.50;99.90;;;;;;5064112;28;20167;-90
2021/01/07 12:18:20;;;;;;;4.90;2.73;;;11.10;99.90;;;;;;5045543;28;20209;-89
2021/01/07 12:20:50;;;;;;;5.63;2.80;;;11.20;99.90;;;;;;5023789;28;20183;-90
2021/01/07 12:23:18;;;;;;;5.07;3.03;;;11.60;99.90;;;;;;5024471;28;20164;-89
2021/01/07 12:25:44;;;;;;;11.18;3.70;;;11.90;99.90;;;;;;5022509;28;20172;-90
2021/01/07 12:28:15;;;;;;;6.07;3.25;;;11.70;99.90;;;;;;5024502;28;20509;-90
2021/01/07 12:30:46;;;;;;;9.07;3.47;;;11.10;99.90;;;;;;5021958;28;20176;-90
2021/01/07 12:33:14;;;;;;;9.05;3.22;;;10.70;99.90;;;;;;5021715;28;20182;-90
2021/01/07 12:35:46;;;;;;;9.73;3.53;;;9.90;99.90;;;;;;5021365;28;20176;-89
2021/01/07 12:38:34;;;;;;;11.13;3.80;;;9.20;99.90;;;;;;5028816;28;20227;-90
2021/01/07 12:41:04;;;;;;;12.83;3.17;;;8.40;99.90;;;;;;5042355;28;20207;-90
2021/01/07 12:43:34;;;;;;;10.20;3.47;;;8.40;99.90;;;;;;5041294;28;20167;-89
2021/01/07 12:46:02;;;;;;;5.90;3.03;;;7.80;99.90;;;;;;5058890;28;20201;-90
2021/01/07 12:48:30;;;;;;;5.90;3.20;;;7.60;99.90;;;;;;5039827;28;20249;-90